Time;durP1;ratioP1;P1;durP2;ratioP2;P2;SDS_P1;SDS_P2;PMS_P1;PMS_P2;Temp;Humidity;BMP_temperature;BMP_pressure;BME280_temperature;BME280_humidity;BME280_pressure;Samples;Min_cycle;Max_cycle;Signal;HPM_P1;HPM_P2
2023/02/06 00:01:17;;;;;;;;;;;;;;;-5.60;83.46;93936.56;5029380;28;19917;-48
2023/02/06 00:03:42;;;;;;;;;;;;;;;-5.57;83.91;93930.31;5029313;28;20500;-48
2023/02/06 00:06:08;;;;;;;;;;;;;;;-5.50;83.72;93933.50;5028695;28;19928;-49
2023/02/06 00:08:33;;;;;;;;;;;;;;;-5.61;83.66;93933.09;5028535;28;19921;-49
2023/02/06 00:11:01;;;;;;;;;;;;;;;-5.51;83.36;93942.78;5029105;28;19913;-48
2023/02/06 00:13:26;;;;;;;;;;;;;;;-5.50;82.29;93938.16;5037433;28;20325;-49
2023/02/06 00:15:51;;;;;;;;;;;;;;;-5.56;82.82;93937.94;5048719;28;19917;-49
2023/02/06 00:18:17;;;;;;;;;;;;;;;-5.65;83.88;93945.91;5048416;28;19917;-49
2023/02/06 00:20:42;;;;;;;;;;;;;;;-5.56;83.49;93948.69;5048748;28;19932;-50
2023/02/06 00:23:07;;;;;;;;;;;;;;;-5.55;83.35;93949.47;5048846;28;20339;-49
2023/02/06 00:25:32;;;;;;;;;;;;;;;-5.59;83.50;93952.25;5047847;28;20015;-49
2023/02/06 00:27:58;;;;;;;;;;;;;;;-5.52;84.52;93945.88;5028527;28;19924;-48
2023/02/06 00:30:23;;;;;;;;;;;;;;;-5.59;83.45;93940.75;5028680;28;19917;-49
2023/02/06 00:32:48;;;;;;;;;;;;;;;-5.71;84.38;93934.22;5039934;28;19913;-49
2023/02/06 00:35:13;;;;;;;;;;;;;;;-5.64;84.13;93938.59;5029085;28;19952;-48
2023/02/06 00:37:39;;;;;;;;;;;;;;;-5.61;84.07;93946.56;5028722;28;20375;-48
2023/02/06 00:40:04;;;;;;;;;;;;;;;-5.65;84.53;93942.50;5028145;28;19928;-49
2023/02/06 00:42:29;;;;;;;;;;;;;;;-5.76;84.30;93947.47;5034839;28;19917;-49
2023/02/06 00:44:55;;;;;;;;;;;;;;;-5.79;83.87;93953.69;5048400;28;20301;-51
2023/02/06 00:47:20;;;;;;;;;;;;;;;-5.96;84.39;93955.03;5048543;28;19919;-48
2023/02/06 00:49:45;;;;;;;;;;;;;;;-5.95;84.74;93951.13;5048140;28;19939;-48
2023/02/06 00:52:10;;;;;;;;;;;;;;;-5.97;84.16;93953.50;5047969;28;20411;-48
2023/02/06 00:54:36;;;;;;;;;;;;;;;-6.02;84.44;93951.38;5048058;28;19916;-49
2023/02/06 00:57:01;;;;;;;;;;;;;;;-6.02;84.96;93951.38;5048573;28;19920;-49
2023/02/06 00:59:26;;;;;;;;;;;;;;;-6.15;84.15;93956.00;5038370;28;20008;-49
2023/02/06 01:01:51;;;;;;;;;;;;;;;-6.14;84.49;93960.19;5047888;28;19924;-48
2023/02/06 01:04:17;;;;;;;;;;;;;;;-6.15;84.04;93953.31;5047819;28;20449;-49
2023/02/06 01:06:42;;;;;;;;;;;;;;;-6.21;82.30;93963.81;5048032;28;19925;-48
2023/02/06 01:09:07;;;;;;;;;;;;;;;-6.20;81.30;93960.72;5044187;28;19929;-52
2023/02/06 01:11:33;;;;;;;;;;;;;;;-6.16;80.45;93957.94;5027975;28;19913;-49
2023/02/06 01:13:59;;;;;;;;;;;;;;;-6.19;78.78;93959.53;5026635;28;19940;-49
2023/02/06 01:16:24;;;;;;;;;;;;;;;-6.28;78.61;93951.34;5027813;28;19928;-48
2023/02/06 01:18:50;;;;;;;;;;;;;;;-6.28;78.22;93956.00;5028318;28;19917;-49
2023/02/06 01:21:16;;;;;;;;;;;;;;;-6.32;78.18;93966.06;5028029;28;20000;-48
2023/02/06 01:23:41;;;;;;;;;;;;;;;-6.53;77.98;93964.00;5027850;28;19921;-49
2023/02/06 01:26:11;;;;;;;;;;;;;;;-6.55;77.18;93969.06;5028078;28;20348;-49
2023/02/06 01:28:40;;;;;;;;;;;;;;;-6.60;77.05;93966.88;5040668;28;19928;-48
2023/02/06 01:31:12;;;;;;;;;;;;;;;-6.72;76.08;93965.69;5047053;28;20379;-47
2023/02/06 01:33:37;;;;;;;;;;;;;;;-6.82;75.61;93969.41;5035272;28;20320;-48
2023/02/06 01:36:02;;;;;;;;;;;;;;;-6.89;76.56;93974.97;5029698;28;19917;-49
2023/02/06 01:38:28;;;;;;;;;;;;;;;-6.83;76.73;93978.66;5031837;28;20707;-49
2023/02/06 01:40:56;;;;;;;;;;;;;;;-6.79;75.93;93968.56;5031689;28;19914;-49
2023/02/06 01:43:21;;;;;;;;;;;;;;;-6.89;74.32;93972.31;5044853;28;19923;-48
2023/02/06 01:45:47;;;;;;;;;;;;;;;-6.96;74.81;93978.63;5050668;28;19912;-48
2023/02/06 01:48:13;;;;;;;;;;;;;;;-6.89;75.69;93971.53;5051745;28;20397;-48
2023/02/06 01:50:39;;;;;;;;;;;;;;;-7.04;76.05;93977.28;5051331;28;19952;-48
2023/02/06 01:53:05;;;;;;;;;;;;;;;-6.90;76.06;93973.47;5051219;28;20025;-49
2023/02/06 01:55:30;;;;;;;;;;;;;;;-6.90;74.49;93970.78;5050462;28;19917;-48
2023/02/06 01:57:55;;;;;;;;;;;;;;;-6.98;73.33;93969.47;5047126;28;19914;-48
2023/02/06 02:00:20;;;;;;;;;;;;;;;-6.93;72.66;93979.69;5029745;28;20134;-48
2023/02/06 02:02:47;;;;;;;;;;;;;;;-6.90;72.83;93973.47;5031034;28;19913;-49
2023/02/06 02:05:12;;;;;;;;;;;;;;;-7.04;73.28;93981.91;5030989;28;20459;-47
2023/02/06 02:07:40;;;;;;;;;;;;;;;-7.06;73.48;93976.22;5031483;28;19925;-48
2023/02/06 02:10:06;;;;;;;;;;;;;;;-7.03;73.19;93978.03;5030177;28;19968;-48
2023/02/06 02:12:31;;;;;;;;;;;;;;;-7.01;72.28;93971.06;5031224;28;19972;-50
2023/02/06 02:14:56;;;;;;;;;;;;;;;-7.11;72.08;93984.78;5031144;28;20376;-48
2023/02/06 02:17:31;;;;;;;;;;;;;;;-7.12;72.31;93985.94;5029917;28;19960;-48
2023/02/06 02:20:11;;;;;;;;;;;;;;;-7.26;72.07;93983.63;5031176;28;20297;-48
2023/02/06 02:22:42;;;;;;;;;;;;;;;-7.23;71.11;93975.47;5030690;28;20484;-48
2023/02/06 02:25:07;;;;;;;;;;;;;;;-7.34;71.98;93977.69;5030826;28;19913;-48
2023/02/06 02:27:48;;;;;;;;;;;;;;;-7.35;72.08;93976.19;5035013;28;19951;-48
2023/02/06 02:30:31;;;;;;;;;;;;;;;-7.35;71.27;93978.09;5050993;28;19916;-48
2023/02/06 02:32:56;;;;;;;;;;;;;;;-7.42;73.16;93983.63;5031781;28;19913;-48
2023/02/06 02:35:30;;;;;;;;;;;;;;;-7.45;72.19;93979.88;5030833;28;20325;-48
2023/02/06 02:37:59;;;;;;;;;;;;;;;-7.40;71.97;93983.97;5029871;28;19950;-49
2023/02/06 02:40:24;;;;;;;;;;;;;;;-7.49;71.70;93989.94;5029259;28;19978;-49
2023/02/06 02:42:52;;;;;;;;;;;;;;;-7.51;72.36;93994.97;5039600;28;20019;-48
2023/02/06 02:45:23;;;;;;;;;;;;;;;-7.48;72.05;93996.06;5050895;28;19913;-48
2023/02/06 02:48:01;;;;;;;;;;;;;;;-7.42;71.44;94000.50;5048505;28;19946;-49
2023/02/06 02:50:27;;;;;;;;;;;;;;;-7.48;72.16;93999.50;5049301;28;19970;-49
2023/02/06 02:52:52;;;;;;;;;;;;;;;-7.47;71.47;93997.56;5050499;28;19925;-48
2023/02/06 02:55:21;;;;;;;;;;;;;;;-7.56;72.04;94006.22;5050391;28;19936;-49
2023/02/06 02:57:46;;;;;;;;;;;;;;;-7.49;72.17;94010.66;5047311;28;20544;-51
2023/02/06 03:00:12;;;;;;;;;;;;;;;-7.58;72.91;94008.56;5044381;28;19924;-48
2023/02/06 03:02:37;;;;;;;;;;;;;;;-7.49;72.53;94016.00;5045403;28;20393;-49
2023/02/06 03:05:04;;;;;;;;;;;;;;;-7.49;73.32;94016.75;5030700;28;19913;-50
2023/02/06 03:07:36;;;;;;;;;;;;;;;-7.50;73.73;94025.22;5030279;28;20053;-48
2023/02/06 03:10:16;;;;;;;;;;;;;;;-7.52;74.37;94030.25;5029036;28;20007;-49
2023/02/06 03:12:43;;;;;;;;;;;;;;;-7.49;73.21;94029.41;5029057;28;20424;-51
2023/02/06 03:15:21;;;;;;;;;;;;;;;-7.53;73.57;94036.78;5029243;28;19917;-48
2023/02/06 03:17:48;;;;;;;;;;;;;;;-7.56;73.21;94026.91;5030214;28;20466;-49
2023/02/06 03:20:13;;;;;;;;;;;;;;;-7.46;72.47;94023.97;5029971;28;20452;-49
2023/02/06 03:22:39;;;;;;;;;;;;;;;-7.55;72.33;94031.84;5030115;28;19937;-48
2023/02/06 03:25:06;;;;;;;;;;;;;;;-7.46;71.51;94033.94;5029221;28;19921;-49
2023/02/06 03:27:31;;;;;;;;;;;;;;;-7.55;71.90;94005.03;5029201;28;19995;-49
2023/02/06 03:29:56;;;;;;;;;;;;;;;-7.50;72.01;94034.03;5029564;28;19964;-48
2023/02/06 03:32:24;;;;;;;;;;;;;;;-7.62;72.36;94031.25;5039482;28;19912;-48
2023/02/06 03:35:07;;;;;;;;;;;;;;;-7.56;72.56;94022.31;5029634;28;20011;-51
2023/02/06 03:37:33;;;;;;;;;;;;;;;-7.62;72.58;94025.91;5029945;28;19957;-50
2023/02/06 03:39:58;;;;;;;;;;;;;;;-7.66;72.86;94027.88;5029266;28;19953;-48
2023/02/06 03:42:24;;;;;;;;;;;;;;;-7.63;72.90;94038.53;5034861;28;19921;-48
2023/02/06 03:44:56;;;;;;;;;;;;;;;-7.62;73.34;94026.63;5048361;28;20387;-48
2023/02/06 03:47:22;;;;;;;;;;;;;;;-7.65;73.83;94027.50;5048033;28;19917;-48
2023/02/06 03:49:47;;;;;;;;;;;;;;;-7.73;73.82;94018.84;5049128;28;19925;-49
2023/02/06 03:52:13;;;;;;;;;;;;;;;-7.76;73.93;94019.69;5047970;28;19916;-48
2023/02/06 03:54:40;;;;;;;;;;;;;;;-7.67;74.08;94013.75;5048370;28;19985;-49
2023/02/06 03:57:05;;;;;;;;;;;;;;;-7.69;74.59;94020.69;5049456;28;19959;-48
2023/02/06 03:59:31;;;;;;;;;;;;;;;-7.73;74.52;94029.56;5035294;28;19925;-49
2023/02/06 04:01:57;;;;;;;;;;;;;;;-7.68;74.75;94030.22;5027951;28;19919;-48
2023/02/06 04:04:28;;;;;;;;;;;;;;;-7.63;74.30;94035.09;5028935;28;20336;-51
2023/02/06 04:07:22;;;;;;;;;;;;;;;-7.63;73.95;94038.53;5028957;28;19917;-49
2023/02/06 04:09:48;;;;;;;;;;;;;;;-7.71;74.29;94045.97;5024360;28;20012;-51
2023/02/06 04:12:14;;;;;;;;;;;;;;;-7.66;74.60;94041.28;5028808;28;20039;-51
2023/02/06 04:14:39;;;;;;;;;;;;;;;-7.71;73.80;94031.84;5029057;28;19917;-50
2023/02/06 04:17:04;;;;;;;;;;;;;;;-7.75;74.90;94026.56;5028793;28;19979;-52
2023/02/06 04:19:30;;;;;;;;;;;;;;;-7.58;74.51;94042.66;5028802;28;19967;-52
2023/02/06 04:21:55;;;;;;;;;;;;;;;-7.55;75.15;94033.75;5028716;28;20003;-51
2023/02/06 04:24:20;;;;;;;;;;;;;;;-7.65;74.50;94032.84;5028820;28;19917;-50
2023/02/06 04:26:45;;;;;;;;;;;;;;;-7.79;75.54;94036.59;5029051;28;19913;-51
2023/02/06 04:29:11;;;;;;;;;;;;;;;-7.72;75.34;94047.16;5045638;28;19916;-51
2023/02/06 04:31:37;;;;;;;;;;;;;;;-7.67;74.86;94045.16;5040706;28;19921;-51
2023/02/06 04:34:02;;;;;;;;;;;;;;;-7.78;75.81;94048.09;5028697;28;19933;-51
2023/02/06 04:36:27;;;;;;;;;;;;;;;-7.73;76.25;94050.28;5028938;28;19967;-50
2023/02/06 04:38:53;;;;;;;;;;;;;;;-7.79;76.64;94052.69;5028516;28;19924;-52
2023/02/06 04:41:18;;;;;;;;;;;;;;;-7.84;77.40;94063.16;5028068;28;20028;-50
2023/02/06 04:43:43;;;;;;;;;;;;;;;-7.93;77.51;94068.31;5044564;28;19913;-51
2023/02/06 04:46:08;;;;;;;;;;;;;;;-7.88;78.22;94075.84;5048542;28;19959;-49
2023/02/06 04:48:34;;;;;;;;;;;;;;;-7.83;77.34;94067.34;5048120;28;20367;-47
2023/02/06 04:50:59;;;;;;;;;;;;;;;-7.92;77.95;94065.22;5046749;28;19984;-49
2023/02/06 04:53:24;;;;;;;;;;;;;;;-7.88;76.46;94065.91;5048129;28;19920;-48
2023/02/06 04:55:49;;;;;;;;;;;;;;;-7.81;76.08;94073.03;5048586;28;20005;-48
2023/02/06 04:58:15;;;;;;;;;;;;;;;-7.83;77.80;94072.69;5040700;28;20383;-49
2023/02/06 05:00:40;;;;;;;;;;;;;;;-7.83;77.41;94083.41;5027852;28;19917;-49
2023/02/06 05:03:06;;;;;;;;;;;;;;;-7.80;78.08;94077.22;5028054;28;19921;-48
2023/02/06 05:05:31;;;;;;;;;;;;;;;-7.75;77.96;94068.69;5027954;28;19925;-49
2023/02/06 05:07:56;;;;;;;;;;;;;;;-7.76;78.44;94081.34;5028101;28;19921;-50
2023/02/06 05:10:22;;;;;;;;;;;;;;;-7.75;78.87;94074.03;5027165;28;20008;-49
2023/02/06 05:12:49;;;;;;;;;;;;;;;-7.66;78.01;94089.53;5028156;28;19921;-50
2023/02/06 05:15:14;;;;;;;;;;;;;;;-7.69;77.57;94093.06;5028270;28;19979;-48
2023/02/06 05:17:40;;;;;;;;;;;;;;;-7.72;77.57;94082.00;5027923;28;20464;-48
2023/02/06 05:20:05;;;;;;;;;;;;;;;-7.65;76.80;94074.97;5028071;28;20340;-48
2023/02/06 05:22:31;;;;;;;;;;;;;;;-7.62;76.91;94090.97;5027820;28;19917;-50
2023/02/06 05:24:56;;;;;;;;;;;;;;;-7.66;76.95;94076.13;5027956;28;19955;-48
2023/02/06 05:27:21;;;;;;;;;;;;;;;-7.62;76.62;94090.97;5027626;28;19936;-48
2023/02/06 05:29:46;;;;;;;;;;;;;;;-7.59;77.37;94092.84;5027764;28;19960;-49
2023/02/06 05:32:12;;;;;;;;;;;;;;;-7.65;77.64;94083.78;5027339;28;19944;-49
2023/02/06 05:34:37;;;;;;;;;;;;;;;-7.60;78.04;94091.31;5027855;28;19920;-48
2023/02/06 05:37:02;;;;;;;;;;;;;;;-7.58;77.85;94091.69;5027643;28;19924;-48
2023/02/06 05:39:28;;;;;;;;;;;;;;;-7.50;78.23;94094.94;5027720;28;19914;-48
2023/02/06 05:41:53;;;;;;;;;;;;;;;-7.46;77.50;94095.59;5028897;28;19971;-48
2023/02/06 05:44:18;;;;;;;;;;;;;;;-7.39;77.01;94093.53;5047364;28;19924;-49
2023/02/06 05:46:44;;;;;;;;;;;;;;;-7.42;77.40;94101.63;5047848;28;19916;-49
2023/02/06 05:49:09;;;;;;;;;;;;;;;-7.45;77.13;94103.22;5047643;28;20662;-49
2023/02/06 05:51:34;;;;;;;;;;;;;;;-7.47;76.80;94113.63;5047618;28;19920;-48
2023/02/06 05:54:00;;;;;;;;;;;;;;;-7.49;76.68;94118.66;5045093;28;19925;-49
2023/02/06 05:56:25;;;;;;;;;;;;;;;-7.40;76.15;94121.50;5027288;28;19917;-52
2023/02/06 05:58:50;;;;;;;;;;;;;;;-7.30;76.83;94130.50;5030328;28;19921;-49
2023/02/06 06:01:15;;;;;;;;;;;;;;;-7.29;76.19;94129.31;5047666;28;20385;-51
2023/02/06 06:03:41;;;;;;;;;;;;;;;-7.18;75.20;94140.56;5047097;28;19917;-50
2023/02/06 06:06:06;;;;;;;;;;;;;;;-7.10;75.09;94133.84;5047099;28;19920;-50
2023/02/06 06:08:31;;;;;;;;;;;;;;;-7.16;75.73;94130.16;5047572;28;19921;-52
2023/02/06 06:10:57;;;;;;;;;;;;;;;-7.11;75.56;94129.66;5047369;28;20445;-50
2023/02/06 06:13:22;;;;;;;;;;;;;;;-7.18;76.83;94129.81;5047290;28;20431;-48
2023/02/06 06:15:50;;;;;;;;;;;;;;;-7.04;76.98;94126.81;5047539;28;20432;-51
2023/02/06 06:18:16;;;;;;;;;;;;;;;-6.96;76.69;94133.50;5047178;28;20343;-48
2023/02/06 06:20:41;;;;;;;;;;;;;;;-6.85;76.21;94138.63;5047578;28;20008;-48
2023/02/06 06:23:06;;;;;;;;;;;;;;;-6.84;76.68;94145.50;5050939;28;19960;-49
2023/02/06 06:25:31;;;;;;;;;;;;;;;-6.82;77.24;94146.56;5050896;28;19921;-48
2023/02/06 06:27:57;;;;;;;;;;;;;;;-6.66;76.67;94160.00;5031319;28;20375;-49
2023/02/06 06:30:22;;;;;;;;;;;;;;;-6.65;76.75;94156.16;5031061;28;19917;-49
2023/02/06 06:32:48;;;;;;;;;;;;;;;-6.47;75.97;94155.69;5030728;28;19952;-49
2023/02/06 06:35:13;;;;;;;;;;;;;;;-6.30;75.59;94159.84;5031046;28;19917;-48
2023/02/06 06:37:39;;;;;;;;;;;;;;;-6.37;73.96;94151.97;5031140;28;19913;-49
2023/02/06 06:40:04;;;;;;;;;;;;;;;-6.45;72.99;94153.31;5030754;28;20404;-49
2023/02/06 06:42:29;;;;;;;;;;;;;;;-6.39;72.94;94148.97;5037247;28;19920;-48
2023/02/06 06:44:55;;;;;;;;;;;;;;;-6.33;73.46;94156.09;5050673;28;19970;-48
2023/02/06 06:47:20;;;;;;;;;;;;;;;-6.14;73.94;94153.66;5050603;28;19917;-49
2023/02/06 06:49:45;;;;;;;;;;;;;;;-6.08;73.34;94157.34;5050580;28;19944;-48
2023/02/06 06:52:10;;;;;;;;;;;;;;;-6.08;73.01;94171.53;5031775;28;19928;-49
2023/02/06 06:54:36;;;;;;;;;;;;;;;-6.01;73.26;94165.22;5030215;28;19917;-49
2023/02/06 06:57:01;;;;;;;;;;;;;;;-6.06;71.69;94165.75;5030899;28;19925;-49
2023/02/06 06:59:26;;;;;;;;;;;;;;;-6.14;71.61;94175.94;5037618;28;20062;-49
2023/02/06 07:01:51;;;;;;;;;;;;;;;-6.01;72.90;94181.34;5050098;28;19913;-49
2023/02/06 07:04:18;;;;;;;;;;;;;;;-6.14;72.46;94175.16;5050548;28;19913;-49
2023/02/06 07:06:43;;;;;;;;;;;;;;;-6.14;74.04;94177.84;5049643;28;19920;-50
2023/02/06 07:09:08;;;;;;;;;;;;;;;-6.15;74.48;94182.50;5050185;28;19928;-49
2023/02/06 07:11:33;;;;;;;;;;;;;;;-6.24;74.88;94190.41;5050211;28;20400;-51
2023/02/06 07:13:59;;;;;;;;;;;;;;;-6.38;75.13;94180.00;5050807;28;19923;-49
2023/02/06 07:16:24;;;;;;;;;;;;;;;-6.25;75.75;94178.13;5050708;28;19916;-50
2023/02/06 07:18:49;;;;;;;;;;;;;;;-6.23;75.68;94184.59;5050523;28;19924;-48
2023/02/06 07:21:14;;;;;;;;;;;;;;;-6.12;75.08;94186.25;5050721;28;19921;-51
2023/02/06 07:23:40;;;;;;;;;;;;;;;-5.92;74.67;94195.69;5051006;28;20592;-52
2023/02/06 07:26:05;;;;;;;;;;;;;;;-5.81;74.43;94203.44;5046013;28;19984;-50
2023/02/06 07:28:31;;;;;;;;;;;;;;;-5.37;72.88;94203.31;5030698;28;19929;-52
2023/02/06 07:31:02;;;;;;;;;;;;;;;-4.65;71.42;94205.38;5030552;28;19921;-52
2023/02/06 07:33:28;;;;;;;;;;;;;;;-4.43;68.84;94194.66;5029947;28;20007;-49
2023/02/06 07:35:53;;;;;;;;;;;;;;;-4.48;68.36;94208.72;5030734;28;20008;-51
2023/02/06 07:38:18;;;;;;;;;;;;;;;-4.81;68.67;94200.13;5030323;28;20471;-52
2023/02/06 07:40:43;;;;;;;;;;;;;;;-4.77;68.92;94200.75;5030176;28;19917;-48
2023/02/06 07:43:09;;;;;;;;;;;;;;;-5.04;69.09;94201.19;5042445;28;20022;-49
2023/02/06 07:45:34;;;;;;;;;;;;;;;-4.99;69.82;94199.91;5050391;28;19920;-49
2023/02/06 07:47:59;;;;;;;;;;;;;;;-4.47;68.71;94204.81;5034801;28;19936;-50
2023/02/06 07:50:25;;;;;;;;;;;;;;;-4.54;67.62;94207.72;5028812;28;19923;-49
2023/02/06 07:52:50;;;;;;;;;;;;;;;-4.73;67.23;94201.41;5029995;28;19917;-51
2023/02/06 07:55:15;;;;;;;;;;;;;;;-5.12;68.94;94218.75;5030178;28;19917;-49
2023/02/06 07:57:41;;;;;;;;;;;;;;;-5.56;70.47;94227.69;5030065;28;19924;-49
2023/02/06 08:00:07;;;;;;;;;;;;;;;-5.71;71.78;94230.03;5042855;28;19952;-51
2023/02/06 08:02:32;;;;;;;;;;;;;;;-5.75;71.15;94225.94;5049721;28;19920;-48
2023/02/06 08:04:57;;;;;;;;;;;;;;;-5.84;71.73;94233.88;5049744;28;20479;-48
2023/02/06 08:07:23;;;;;;;;;;;;;;;-5.76;71.08;94238.63;5049482;28;19999;-49
2023/02/06 08:09:48;;;;;;;;;;;;;;;-5.39;70.47;94229.91;5049817;28;19924;-50
2023/02/06 08:12:13;;;;;;;;;;;;;;;-5.70;71.07;94244.25;5049878;28;19956;-50
2023/02/06 08:14:38;;;;;;;;;;;;;;;-5.50;71.44;94236.78;5049722;28;19923;-50
2023/02/06 08:17:04;;;;;;;;;;;;;;;-5.44;70.40;94245.81;5049719;28;19917;-51
2023/02/06 08:19:29;;;;;;;;;;;;;;;-5.42;71.02;94252.28;5049663;28;19924;-49
2023/02/06 08:21:54;;;;;;;;;;;;;;;-5.56;70.89;94257.28;5049626;28;19918;-49
2023/02/06 08:24:20;;;;;;;;;;;;;;;-5.39;70.62;94256.81;5049639;28;20007;-48
2023/02/06 08:26:45;;;;;;;;;;;;;;;-5.13;70.16;94246.84;5039930;28;19996;-48
2023/02/06 08:29:10;;;;;;;;;;;;;;;-5.37;69.31;94262.50;5029257;28;19927;-48
2023/02/06 08:31:37;;;;;;;;;;;;;;;-5.28;70.55;94261.16;5036363;28;19936;-48
2023/02/06 08:34:02;;;;;;;;;;;;;;;-5.15;69.78;94254.59;5033326;28;19953;-49
2023/02/06 08:36:28;;;;;;;;;;;;;;;-4.79;68.42;94249.69;5029446;28;19961;-50
2023/02/06 08:38:54;;;;;;;;;;;;;;;-4.52;68.28;94260.00;5028091;28;20390;-49
2023/02/06 08:41:26;;;;;;;;;;;;;;;-4.23;66.87;94262.56;5029057;28;19913;-50
2023/02/06 08:43:53;;;;;;;;;;;;;;;-3.96;65.66;94255.47;5040651;28;19921;-48
2023/02/06 08:46:18;;;;;;;;;;;;;;;-3.81;64.37;94257.72;5048362;28;20003;-50
2023/02/06 08:48:44;;;;;;;;;;;;;;;-3.55;64.98;94264.53;5048841;28;20597;-48
2023/02/06 08:51:09;;;;;;;;;;;;;;;-3.07;62.71;94259.28;5048966;28;19913;-50
2023/02/06 08:53:35;;;;;;;;;;;;;;;-1.94;60.59;94254.91;5047907;28;19927;-52
2023/02/06 08:56:01;;;;;;;;;;;;;;;-0.95;56.20;94261.50;5048618;28;19920;-50
2023/02/06 08:58:26;;;;;;;;;;;;;;;0.17;53.64;94262.88;5040182;28;19917;-53
2023/02/06 09:00:52;;;;;;;;;;;;;;;1.19;50.40;94261.13;5028967;28;19917;-50
2023/02/06 09:03:17;;;;;;;;;;;;;;;2.58;48.02;94258.47;5028865;28;20400;-53
2023/02/06 09:05:43;;;;;;;;;;;;;;;2.58;45.41;94263.91;5028862;28;19979;-50
2023/02/06 09:08:08;;;;;;;;;;;;;;;1.36;47.13;94264.16;5028889;28;20016;-53
2023/02/06 09:10:33;;;;;;;;;;;;;;;2.25;46.68;94258.06;5028486;28;20313;-51
2023/02/06 09:12:59;;;;;;;;;;;;;;;2.47;45.36;94254.88;5028794;28;20008;-50
2023/02/06 09:15:24;;;;;;;;;;;;;;;4.23;42.61;94250.28;5029033;28;19927;-51
2023/02/06 09:17:49;;;;;;;;;;;;;;;4.94;40.60;94253.81;5028500;28;19915;-50
2023/02/06 09:20:14;;;;;;;;;;;;;;;5.58;39.41;94259.22;5027776;28;19994;-51
2023/02/06 09:22:40;;;;;;;;;;;;;;;5.15;38.73;94261.38;5028080;28;19914;-50
2023/02/06 09:25:05;;;;;;;;;;;;;;;5.92;39.94;94254.50;5027532;28;20440;-50
2023/02/06 09:27:30;;;;;;;;;;;;;;;5.90;37.35;94257.75;5039902;28;19920;-50
2023/02/06 09:29:56;;;;;;;;;;;;;;;5.98;36.79;94252.50;5027870;28;19917;-51
2023/02/06 09:32:21;;;;;;;;;;;;;;;5.99;35.88;94254.78;5027237;28;19917;-50
2023/02/06 09:34:46;;;;;;;;;;;;;;;6.22;34.95;94241.00;5027775;28;20329;-50
2023/02/06 09:37:12;;;;;;;;;;;;;;;5.71;34.73;94234.81;5027501;28;19926;-52
2023/02/06 09:39:37;;;;;;;;;;;;;;;5.81;33.50;94241.53;5035163;28;19924;-51
2023/02/06 09:42:06;;;;;;;;;;;;;;;3.91;35.94;94235.19;5044899;28;19935;-53
2023/02/06 09:44:36;;;;;;;;;;;;;;;4.24;36.97;94237.38;5026508;28;20423;-48
2023/02/06 09:47:01;;;;;;;;;;;;;;;3.97;35.88;94232.47;5026247;28;20008;-50
2023/02/06 09:49:29;;;;;;;;;;;;;;;3.41;37.62;94231.31;5027876;28;20075;-53
2023/02/06 09:51:57;;;;;;;;;;;;;;;3.89;36.95;94225.97;5026571;28;19917;-51
2023/02/06 09:54:23;;;;;;;;;;;;;;;4.05;38.19;94233.53;5026460;28;20491;-51
2023/02/06 09:56:51;;;;;;;;;;;;;;;4.22;37.70;94240.56;5029547;28;20002;-49
2023/02/06 09:59:22;;;;;;;;;;;;;;;4.10;36.48;94230.81;5037590;28;19912;-50
2023/02/06 10:01:47;;;;;;;;;;;;;;;3.59;37.21;94233.72;5050186;28;19917;-51
2023/02/06 10:04:13;;;;;;;;;;;;;;;3.61;38.04;94232.00;5051434;28;19950;-50
2023/02/06 10:06:44;;;;;;;;;;;;;;;3.17;38.80;94228.88;5051051;28;19925;-52
2023/02/06 10:09:44;;;;;;;;;;;;;;;3.18;38.06;94227.66;5051373;28;20487;-51
2023/02/06 10:12:22;;;;;;;;;;;;;;;3.60;37.17;94222.28;4988816;28;19921;-51
2023/02/06 10:14:50;;;;;;;;;;;;;;;4.25;38.59;94225.94;5039894;28;19921;-49
2023/02/06 10:17:18;;;;;;;;;;;;;;;4.46;38.32;94210.16;5051367;28;20515;-49
2023/02/06 10:19:45;;;;;;;;;;;;;;;5.00;35.21;94208.09;5051055;28;19959;-50
2023/02/06 10:22:23;;;;;;;;;;;;;;;3.56;37.39;94207.34;5050899;28;20389;-50
2023/02/06 10:24:53;;;;;;;;;;;;;;;3.35;38.03;94209.44;5051032;28;19923;-49
2023/02/06 10:27:18;;;;;;;;;;;;;;;3.35;36.69;94206.72;5038165;28;19943;-50
2023/02/06 10:29:44;;;;;;;;;;;;;;;4.10;37.16;94203.50;5049629;28;19920;-49
2023/02/06 10:32:12;;;;;;;;;;;;;;;3.68;36.76;94193.28;5036777;28;20341;-51
2023/02/06 10:35:16;;;;;;;;;;;;;;;3.32;38.61;94209.63;5030772;28;20388;-52
2023/02/06 10:37:47;;;;;;;;;;;;;;;3.52;37.92;94210.31;4987808;28;19921;-49
2023/02/06 10:40:26;;;;;;;;;;;;;;;3.04;38.56;94193.78;4987620;28;19967;-49
2023/02/06 10:42:53;;;;;;;;;;;;;;;2.28;38.93;94199.88;5003636;28;19913;-50
2023/02/06 10:45:22;;;;;;;;;;;;;;;1.17;40.79;94195.56;5028721;28;20000;-50
2023/02/06 10:47:49;;;;;;;;;;;;;;;1.49;41.77;94202.03;5030030;28;20373;-51
2023/02/06 10:50:14;;;;;;;;;;;;;;;1.71;41.93;94179.81;5029353;28;19950;-49
2023/02/06 10:52:39;;;;;;;;;;;;;;;1.78;40.02;94187.56;5030146;28;19917;-50
2023/02/06 10:55:11;;;;;;;;;;;;;;;2.57;39.76;94183.38;5029319;28;19928;-50
2023/02/06 10:57:36;;;;;;;;;;;;;;;2.64;39.66;94185.69;5030375;28;19917;-49
2023/02/06 11:00:03;;;;;;;;;;;;;;;2.29;40.66;94185.03;5028652;28;19913;-49
2023/02/06 11:02:31;;;;;;;;;;;;;;;2.87;39.50;94190.16;5030575;28;20301;-50
2023/02/06 11:05:02;;;;;;;;;;;;;;;2.98;39.53;94192.22;5030394;28;19960;-49
2023/02/06 11:07:41;;;;;;;;;;;;;;;3.31;38.34;94198.00;5028163;28;19999;-50
2023/02/06 11:10:07;;;;;;;;;;;;;;;3.28;38.44;94206.38;5029838;28;20672;-50
2023/02/06 11:12:40;;;;;;;;;;;;;;;2.74;39.96;94191.75;5030005;28;20024;-51
2023/02/06 11:15:24;;;;;;;;;;;;;;;2.26;41.72;94192.19;5029894;28;20468;-49
2023/02/06 11:17:50;;;;;;;;;;;;;;;1.80;41.81;94183.16;5030551;28;20355;-50
2023/02/06 11:20:20;;;;;;;;;;;;;;;2.97;40.69;94179.81;5029716;28;19974;-49
2023/02/06 11:22:46;;;;;;;;;;;;;;;3.34;37.91;94188.81;5029644;28;19917;-50
2023/02/06 11:25:19;;;;;;;;;;;;;;;2.50;40.04;94183.78;5028729;28;19971;-49
2023/02/06 11:27:44;;;;;;;;;;;;;;;2.92;38.09;94181.25;5041800;28;19920;-48
2023/02/06 11:30:39;;;;;;;;;;;;;;;3.23;37.07;94185.28;5028660;28;20436;-51
2023/02/06 11:33:06;;;;;;;;;;;;;;;2.58;38.96;94176.69;5024306;28;19974;-50
2023/02/06 11:35:38;;;;;;;;;;;;;;;2.09;40.34;94193.22;5028492;28;20360;-49
2023/02/06 11:38:05;;;;;;;;;;;;;;;2.84;37.77;94177.47;5029507;28;19917;-49
2023/02/06 11:40:30;;;;;;;;;;;;;;;2.62;38.26;94169.06;5029532;28;19917;-49
2023/02/06 11:43:25;;;;;;;;;;;;;;;2.20;38.02;94171.56;5039590;28;19916;-50
2023/02/06 11:46:10;;;;;;;;;;;;;;;3.36;38.53;94180.16;5036643;28;19913;-49
2023/02/06 11:48:40;;;;;;;;;;;;;;;3.54;37.71;94179.78;5049049;28;19927;-50
2023/02/06 11:51:06;;;;;;;;;;;;;;;2.55;39.77;94180.41;5049633;28;20289;-48
2023/02/06 11:53:31;;;;;;;;;;;;;;;2.78;38.75;94182.13;5049342;28;19913;-52
2023/02/06 11:56:17;;;;;;;;;;;;;;;2.54;39.97;94178.88;5049356;28;19921;-50
2023/02/06 11:58:43;;;;;;;;;;;;;;;2.87;39.45;94181.22;5040365;28;19913;-50
2023/02/06 12:01:15;;;;;;;;;;;;;;;2.72;41.05;94178.59;5049319;28;20463;-48
2023/02/06 12:03:52;;;;;;;;;;;;;;;2.47;41.61;94178.56;5049274;28;19923;-50
2023/02/06 12:06:29;;;;;;;;;;;;;;;3.17;40.72;94170.81;5047780;28;19925;-49
2023/02/06 12:08:55;;;;;;;;;;;;;;;2.84;40.06;94177.47;5047677;28;19928;-49
2023/02/06 12:11:21;;;;;;;;;;;;;;;2.40;42.54;94176.25;5049292;28;19913;-49
2023/02/06 12:13:48;;;;;;;;;;;;;;;2.46;43.48;94183.25;5049045;28;19912;-50
2023/02/06 12:16:16;;;;;;;;;;;;;;;1.94;43.20;94184.34;5048932;28;19920;-49
2023/02/06 12:18:43;;;;;;;;;;;;;;;1.51;45.11;94173.13;5048992;28;19966;-51
2023/02/06 12:21:29;;;;;;;;;;;;;;;1.94;44.85;94187.06;5047888;28;19944;-49
2023/02/06 12:24:01;;;;;;;;;;;;;;;1.59;45.03;94175.44;5047227;28;19923;-50
2023/02/06 12:26:28;;;;;;;;;;;;;;;1.15;45.46;94184.41;5044364;28;19941;-48
2023/02/06 12:28:54;;;;;;;;;;;;;;;1.67;45.15;94182.00;5028616;28;19925;-48
2023/02/06 12:31:22;;;;;;;;;;;;;;;1.04;46.13;94183.50;5033712;28;19969;-48
2023/02/06 12:33:51;;;;;;;;;;;;;;;1.07;46.85;94177.09;5034784;28;20388;-48
2023/02/06 12:36:21;;;;;;;;;;;;;;;0.95;46.78;94176.19;5027649;28;19967;-49
2023/02/06 12:39:02;;;;;;;;;;;;;;;0.96;47.29;94185.06;5028765;28;19925;-49
2023/02/06 12:41:31;;;;;;;;;;;;;;;0.78;48.03;94183.28;5028842;28;20558;-47
2023/02/06 12:44:05;;;;;;;;;;;;;;;1.06;47.73;94184.50;5046723;28;20459;-48
2023/02/06 12:46:30;;;;;;;;;;;;;;;1.00;48.21;94188.34;5047658;28;19913;-48
2023/02/06 12:49:01;;;;;;;;;;;;;;;0.99;46.84;94190.34;5048313;28;19923;-47
2023/02/06 12:51:46;;;;;;;;;;;;;;;0.85;47.92;94193.78;5048461;28;19952;-48